sensor_id;sensor_type;location;lat;lon;timestamp;temperature;humidity
9389;DHT22;4734;52.778;6.798;2024-01-15T00:02:00;2.90;99.90
9389;DHT22;4734;52.778;6.798;2024-01-15T00:04:45;2.90;99.90
9389;DHT22;4734;52.778;6.798;2024-01-15T00:07:31;2.90;99.90
9389;DHT22;4734;52.778;6.798;2024-01-15T00:10:16;2.80;99.90
9389;DHT22;4734;52.778;6.798;2024-01-15T00:13:02;2.80;99.90
9389;DHT22;4734;52.778;6.798;2024-01-15T00:15:47;2.80;99.90
9389;DHT22;4734;52.778;6.798;2024-01-15T00:18:34;2.80;99.90
9389;DHT22;4734;52.778;6.798;2024-01-15T00:21:20;2.80;99.90
9389;DHT22;4734;52.778;6.798;2024-01-15T00:24:06;2.80;99.90
9389;DHT22;4734;52.778;6.798;2024-01-15T00:26:51;2.80;99.90
9389;DHT22;4734;52.778;6.798;2024-01-15T00:29:37;2.80;99.90
9389;DHT22;4734;52.778;6.798;2024-01-15T00:32:22;2.70;99.90
9389;DHT22;4734;52.778;6.798;2024-01-15T00:35:09;2.70;99.90
9389;DHT22;4734;52.778;6.798;2024-01-15T00:37:55;2.70;99.90
9389;DHT22;4734;52.778;6.798;2024-01-15T00:40:41;2.70;99.90
9389;DHT22;4734;52.778;6.798;2024-01-15T00:43:26;2.70;99.90
9389;DHT22;4734;52.778;6.798;2024-01-15T00:46:12;2.70;99.90
9389;DHT22;4734;52.778;6.798;2024-01-15T00:48:57;2.70;99.90
9389;DHT22;4734;52.778;6.798;2024-01-15T00:51:44;2.70;99.90
9389;DHT22;4734;52.778;6.798;2024-01-15T00:54:29;2.70;99.90
9389;DHT22;4734;52.778;6.798;2024-01-15T00:57:15;2.70;99.90
9389;DHT22;4734;52.778;6.798;2024-01-15T01:00:00;2.60;99.90
9389;DHT22;4734;52.778;6.798;2024-01-15T01:02:46;2.70;99.90
9389;DHT22;4734;52.778;6.798;2024-01-15T01:05:32;2.60;99.90
9389;DHT22;4734;52.778;6.798;2024-01-15T01:08:19;2.60;99.90
9389;DHT22;4734;52.778;6.798;2024-01-15T01:11:05;2.60;99.90
9389;DHT22;4734;52.778;6.798;2024-01-15T01:13:51;2.60;99.90
9389;DHT22;4734;52.778;6.798;2024-01-15T01:16:37;2.70;99.90
9389;DHT22;4734;52.778;6.798;2024-01-15T01:19:23;2.60;99.90
9389;DHT22;4734;52.778;6.798;2024-01-15T01:22:09;2.60;99.90
9389;DHT22;4734;52.778;6.798;2024-01-15T01:24:56;2.70;99.90
9389;DHT22;4734;52.778;6.798;2024-01-15T01:27:41;2.60;99.90
9389;DHT22;4734;52.778;6.798;2024-01-15T01:30:27;2.70;99.90
9389;DHT22;4734;52.778;6.798;2024-01-15T01:33:12;2.60;99.90
9389;DHT22;4734;52.778;6.798;2024-01-15T01:35:58;2.70;99.90
9389;DHT22;4734;52.778;6.798;2024-01-15T01:38:43;2.60;99.90
9389;DHT22;4734;52.778;6.798;2024-01-15T01:41:30;2.60;99.90
9389;DHT22;4734;52.778;6.798;2024-01-15T01:44:16;2.70;99.90
9389;DHT22;4734;52.778;6.798;2024-01-15T01:47:01;2.60;99.90
9389;DHT22;4734;52.778;6.798;2024-01-15T01:49:47;2.70;99.90
9389;DHT22;4734;52.778;6.798;2024-01-15T01:52:32;2.70;99.90
9389;DHT22;4734;52.778;6.798;2024-01-15T01:55:18;2.70;99.90
9389;DHT22;4734;52.778;6.798;2024-01-15T01:58:06;2.70;99.90
9389;DHT22;4734;52.778;6.798;2024-01-15T02:00:52;2.70;99.90
9389;DHT22;4734;52.778;6.798;2024-01-15T02:03:38;2.70;99.90
9389;DHT22;4734;52.778;6.798;2024-01-15T02:06:25;2.70;99.90
9389;DHT22;4734;52.778;6.798;2024-01-15T02:09:11;2.70;99.90
9389;DHT22;4734;52.778;6.798;2024-01-15T02:11:59;2.60;99.90
9389;DHT22;4734;52.778;6.798;2024-01-15T02:14:46;2.70;99.90
9389;DHT22;4734;52.778;6.798;2024-01-15T02:17:31;2.70;99.90
9389;DHT22;4734;52.778;6.798;2024-01-15T02:20:17;2.60;99.90
9389;DHT22;4734;52.778;6.798;2024-01-15T02:23:10;2.70;99.90
9389;DHT22;4734;52.778;6.798;2024-01-15T02:25:55;2.70;99.90
9389;DHT22;4734;52.778;6.798;2024-01-15T02:28:41;2.70;99.90
9389;DHT22;4734;52.778;6.798;2024-01-15T02:31:28;2.70;99.90
9389;DHT22;4734;52.778;6.798;2024-01-15T02:34:13;2.70;99.90
9389;DHT22;4734;52.778;6.798;2024-01-15T02:36:59;2.70;99.90
9389;DHT22;4734;52.778;6.798;2024-01-15T02:39:46;2.70;99.90
9389;DHT22;4734;52.778;6.798;2024-01-15T02:42:31;2.70;99.90
9389;DHT22;4734;52.778;6.798;2024-01-15T02:45:17;2.70;99.90
9389;DHT22;4734;52.778;6.798;2024-01-15T02:48:03;2.70;99.90
9389;DHT22;4734;52.778;6.798;2024-01-15T02:50:48;2.70;99.90
9389;DHT22;4734;52.778;6.798;2024-01-15T02:53:35;2.60;99.90
9389;DHT22;4734;52.778;6.798;2024-01-15T02:56:22;2.70;99.90
9389;DHT22;4734;52.778;6.798;2024-01-15T02:59:08;2.70;99.90
9389;DHT22;4734;52.778;6.798;2024-01-15T03:01:53;2.70;99.90
9389;DHT22;4734;52.778;6.798;2024-01-15T03:04:43;2.70;99.90
9389;DHT22;4734;52.778;6.798;2024-01-15T03:07:28;2.70;99.90
9389;DHT22;4734;52.778;6.798;2024-01-15T03:10:14;2.70;99.90
9389;DHT22;4734;52.778;6.798;2024-01-15T03:13:01;2.70;99.90
9389;DHT22;4734;52.778;6.798;2024-01-15T03:15:46;2.70;99.90
9389;DHT22;4734;52.778;6.798;2024-01-15T03:18:32;2.70;99.90
9389;DHT22;4734;52.778;6.798;2024-01-15T03:21:17;2.60;99.90
9389;DHT22;4734;52.778;6.798;2024-01-15T03:24:03;2.60;99.90
9389;DHT22;4734;52.778;6.798;2024-01-15T03:26:49;2.70;99.90
9389;DHT22;4734;52.778;6.798;2024-01-15T03:29:36;2.70;99.90
9389;DHT22;4734;52.778;6.798;2024-01-15T03:32:21;2.70;99.90
9389;DHT22;4734;52.778;6.798;2024-01-15T03:35:07;2.70;99.90
9389;DHT22;4734;52.778;6.798;2024-01-15T03:37:53;2.70;99.90
9389;DHT22;4734;52.778;6.798;2024-01-15T03:40:38;2.70;99.90
9389;DHT22;4734;52.778;6.798;2024-01-15T03:43:24;2.70;99.90
9389;DHT22;4734;52.778;6.798;2024-01-15T03:46:11;2.70;99.90
9389;DHT22;4734;52.778;6.798;2024-01-15T03:48:56;2.70;99.90
9389;DHT22;4734;52.778;6.798;2024-01-15T03:51:42;2.70;99.90
9389;DHT22;4734;52.778;6.798;2024-01-15T03:54:27;2.70;99.90
9389;DHT22;4734;52.778;6.798;2024-01-15T03:57:13;2.70;99.90
9389;DHT22;4734;52.778;6.798;2024-01-15T03:59:58;2.60;99.90
9389;DHT22;4734;52.778;6.798;2024-01-15T04:02:45;2.60;99.90
9389;DHT22;4734;52.778;6.798;2024-01-15T04:05:31;2.60;99.90
9389;DHT22;4734;52.778;6.798;2024-01-15T04:08:16;2.70;99.90
9389;DHT22;4734;52.778;6.798;2024-01-15T04:11:02;2.60;99.90
9389;DHT22;4734;52.778;6.798;2024-01-15T04:13:47;2.70;99.90
9389;DHT22;4734;52.778;6.798;2024-01-15T04:16:33;2.60;99.90
9389;DHT22;4734;52.778;6.798;2024-01-15T04:19:20;2.70;99.90
9389;DHT22;4734;52.778;6.798;2024-01-15T04:22:06;2.70;99.90
9389;DHT22;4734;52.778;6.798;2024-01-15T04:24:51;2.70;99.90
9389;DHT22;4734;52.778;6.798;2024-01-15T04:27:37;2.70;99.90
9389;DHT22;4734;52.778;6.798;2024-01-15T04:30:22;2.70;99.90
9389;DHT22;4734;52.778;6.798;2024-01-15T04:33:08;2.70;99.90
9389;DHT22;4734;52.778;6.798;2024-01-15T04:35:55;2.70;99.90
9389;DHT22;4734;52.778;6.798;2024-01-15T04:38:40;2.70;99.90
9389;DHT22;4734;52.778;6.798;2024-01-15T04:41:26;2.70;99.90
9389;DHT22;4734;52.778;6.798;2024-01-15T04:44:11;2.70;99.90
9389;DHT22;4734;52.778;6.798;2024-01-15T04:46:57;2.70;99.90
9389;DHT22;4734;52.778;6.798;2024-01-15T04:49:42;2.70;99.90
9389;DHT22;4734;52.778;6.798;2024-01-15T04:52:29;2.70;99.90
9389;DHT22;4734;52.778;6.798;2024-01-15T04:55:15;2.60;99.90
9389;DHT22;4734;52.778;6.798;2024-01-15T04:58:00;2.60;99.90
9389;DHT22;4734;52.778;6.798;2024-01-15T05:00:46;2.70;99.90
9389;DHT22;4734;52.778;6.798;2024-01-15T05:03:31;2.70;99.90
9389;DHT22;4734;52.778;6.798;2024-01-15T05:06:16;2.60;99.90
9389;DHT22;4734;52.778;6.798;2024-01-15T05:09:03;2.60;99.90
9389;DHT22;4734;52.778;6.798;2024-01-15T05:11:48;2.60;99.90
9389;DHT22;4734;52.778;6.798;2024-01-15T05:14:34;2.70;99.90
9389;DHT22;4734;52.778;6.798;2024-01-15T05:17:19;2.60;99.90
9389;DHT22;4734;52.778;6.798;2024-01-15T05:20:06;2.60;99.90
9389;DHT22;4734;52.778;6.798;2024-01-15T05:22:51;2.60;99.90
9389;DHT22;4734;52.778;6.798;2024-01-15T05:25:38;2.60;99.90
9389;DHT22;4734;52.778;6.798;2024-01-15T05:28:24;2.70;99.90
9389;DHT22;4734;52.778;6.798;2024-01-15T05:31:09;2.70;99.90
9389;DHT22;4734;52.778;6.798;2024-01-15T05:33:55;2.70;99.90
9389;DHT22;4734;52.778;6.798;2024-01-15T05:36:41;2.70;99.90
9389;DHT22;4734;52.778;6.798;2024-01-15T05:39:26;2.70;99.90
9389;DHT22;4734;52.778;6.798;2024-01-15T05:42:13;2.70;99.90
9389;DHT22;4734;52.778;6.798;2024-01-15T05:44:58;2.60;99.90
9389;DHT22;4734;52.778;6.798;2024-01-15T05:47:46;2.60;99.90
9389;DHT22;4734;52.778;6.798;2024-01-15T05:50:32;2.60;99.90
9389;DHT22;4734;52.778;6.798;2024-01-15T05:53:17;2.60;99.90
9389;DHT22;4734;52.778;6.798;2024-01-15T05:56:03;2.60;99.90
9389;DHT22;4734;52.778;6.798;2024-01-15T05:58:50;2.60;99.90
9389;DHT22;4734;52.778;6.798;2024-01-15T06:01:36;2.60;99.90
9389;DHT22;4734;52.778;6.798;2024-01-15T06:04:21;2.60;99.90
9389;DHT22;4734;52.778;6.798;2024-01-15T06:07:07;2.60;99.90
9389;DHT22;4734;52.778;6.798;2024-01-15T06:09:52;2.60;99.90
9389;DHT22;4734;52.778;6.798;2024-01-15T06:12:38;2.60;99.90
9389;DHT22;4734;52.778;6.798;2024-01-15T06:15:25;2.60;99.90
9389;DHT22;4734;52.778;6.798;2024-01-15T06:18:10;2.60;99.90
9389;DHT22;4734;52.778;6.798;2024-01-15T06:20:56;2.60;99.90
9389;DHT22;4734;52.778;6.798;2024-01-15T06:23:41;2.60;99.90
9389;DHT22;4734;52.778;6.798;2024-01-15T06:26:27;2.60;99.90
9389;DHT22;4734;52.778;6.798;2024-01-15T06:29:13;2.60;99.90
9389;DHT22;4734;52.778;6.798;2024-01-15T06:31:59;2.60;99.90
9389;DHT22;4734;52.778;6.798;2024-01-15T06:34:45;2.60;99.90
9389;DHT22;4734;52.778;6.798;2024-01-15T06:37:30;2.60;99.90
9389;DHT22;4734;52.778;6.798;2024-01-15T06:40:16;2.60;99.90
9389;DHT22;4734;52.778;6.798;2024-01-15T06:43:02;2.60;99.90
9389;DHT22;4734;52.778;6.798;2024-01-15T06:45:48;2.60;99.90
9389;DHT22;4734;52.778;6.798;2024-01-15T06:48:35;2.60;99.90
9389;DHT22;4734;52.778;6.798;2024-01-15T06:51:20;2.60;99.90
9389;DHT22;4734;52.778;6.798;2024-01-15T06:54:06;2.60;99.90
9389;DHT22;4734;52.778;6.798;2024-01-15T06:56:51;2.60;99.90
9389;DHT22;4734;52.778;6.798;2024-01-15T06:59:37;2.50;99.90
9389;DHT22;4734;52.778;6.798;2024-01-15T07:02:23;2.60;99.90
9389;DHT22;4734;52.778;6.798;2024-01-15T07:05:09;2.60;99.90
9389;DHT22;4734;52.778;6.798;2024-01-15T07:07:55;2.60;99.90
9389;DHT22;4734;52.778;6.798;2024-01-15T07:10:40;2.60;99.90
9389;DHT22;4734;52.778;6.798;2024-01-15T07:13:26;2.60;99.90
9389;DHT22;4734;52.778;6.798;2024-01-15T07:16:11;2.50;99.90
9389;DHT22;4734;52.778;6.798;2024-01-15T07:18:57;2.60;99.90
9389;DHT22;4734;52.778;6.798;2024-01-15T07:21:44;2.60;99.90
9389;DHT22;4734;52.778;6.798;2024-01-15T07:24:30;2.60;99.90
9389;DHT22;4734;52.778;6.798;2024-01-15T07:27:15;2.60;99.90
9389;DHT22;4734;52.778;6.798;2024-01-15T07:30:01;2.50;99.90
9389;DHT22;4734;52.778;6.798;2024-01-15T07:32:49;2.60;99.90
9389;DHT22;4734;52.778;6.798;2024-01-15T07:35:35;2.60;99.90
9389;DHT22;4734;52.778;6.798;2024-01-15T07:38:22;2.50;99.90
9389;DHT22;4734;52.778;6.798;2024-01-15T07:41:07;2.50;99.90
9389;DHT22;4734;52.778;6.798;2024-01-15T07:43:53;2.50;99.90
9389;DHT22;4734;52.778;6.798;2024-01-15T07:46:38;2.50;99.90
9389;DHT22;4734;52.778;6.798;2024-01-15T07:49:25;2.50;99.90
9389;DHT22;4734;52.778;6.798;2024-01-15T07:52:10;2.60;99.90
9389;DHT22;4734;52.778;6.798;2024-01-15T07:54:58;2.50;99.90
9389;DHT22;4734;52.778;6.798;2024-01-15T07:57:44;2.50;99.90
9389;DHT22;4734;52.778;6.798;2024-01-15T08:00:30;2.50;99.90
9389;DHT22;4734;52.778;6.798;2024-01-15T08:03:15;2.50;99.90
9389;DHT22;4734;52.778;6.798;2024-01-15T08:06:01;2.50;99.90
9389;DHT22;4734;52.778;6.798;2024-01-15T08:08:46;2.50;99.90
9389;DHT22;4734;52.778;6.798;2024-01-15T08:11:33;2.50;99.90
9389;DHT22;4734;52.778;6.798;2024-01-15T08:14:19;2.50;99.90
9389;DHT22;4734;52.778;6.798;2024-01-15T08:17:04;2.50;99.90
9389;DHT22;4734;52.778;6.798;2024-01-15T08:19:51;2.50;99.90
9389;DHT22;4734;52.778;6.798;2024-01-15T08:22:38;2.50;99.90
9389;DHT22;4734;52.778;6.798;2024-01-15T08:25:23;2.50;99.90
9389;DHT22;4734;52.778;6.798;2024-01-15T08:28:11;2.50;99.90
9389;DHT22;4734;52.778;6.798;2024-01-15T08:30:56;2.40;99.90
9389;DHT22;4734;52.778;6.798;2024-01-15T08:33:42;2.40;99.90
9389;DHT22;4734;52.778;6.798;2024-01-15T08:36:28;2.50;99.90
9389;DHT22;4734;52.778;6.798;2024-01-15T08:39:13;2.50;99.90
9389;DHT22;4734;52.778;6.798;2024-01-15T08:41:59;2.40;99.90
9389;DHT22;4734;52.778;6.798;2024-01-15T08:44:46;2.40;99.90
9389;DHT22;4734;52.778;6.798;2024-01-15T08:47:31;2.40;99.90
9389;DHT22;4734;52.778;6.798;2024-01-15T08:50:17;2.40;99.90
9389;DHT22;4734;52.778;6.798;2024-01-15T08:53:03;2.40;99.90
9389;DHT22;4734;52.778;6.798;2024-01-15T08:55:48;2.50;99.90
9389;DHT22;4734;52.778;6.798;2024-01-15T08:58:34;2.40;99.90
9389;DHT22;4734;52.778;6.798;2024-01-15T09:01:21;2.40;99.90
9389;DHT22;4734;52.778;6.798;2024-01-15T09:04:07;2.40;99.90
9389;DHT22;4734;52.778;6.798;2024-01-15T09:06:53;2.40;99.90
9389;DHT22;4734;52.778;6.798;2024-01-15T09:09:38;2.40;99.90
9389;DHT22;4734;52.778;6.798;2024-01-15T09:12:24;2.40;99.90
9389;DHT22;4734;52.778;6.798;2024-01-15T09:15:12;2.40;99.90
9389;DHT22;4734;52.778;6.798;2024-01-15T09:17:59;2.40;99.90
9389;DHT22;4734;52.778;6.798;2024-01-15T09:20:46;2.40;99.90
9389;DHT22;4734;52.778;6.798;2024-01-15T09:23:31;2.50;99.90
9389;DHT22;4734;52.778;6.798;2024-01-15T09:26:17;2.50;99.90
9389;DHT22;4734;52.778;6.798;2024-01-15T09:29:02;2.50;99.90
9389;DHT22;4734;52.778;6.798;2024-01-15T09:31:48;2.50;99.90
9389;DHT22;4734;52.778;6.798;2024-01-15T09:34:35;2.50;99.90
9389;DHT22;4734;52.778;6.798;2024-01-15T09:37:20;2.50;99.90
9389;DHT22;4734;52.778;6.798;2024-01-15T09:40:08;2.50;99.90
9389;DHT22;4734;52.778;6.798;2024-01-15T09:42:57;2.50;99.90
9389;DHT22;4734;52.778;6.798;2024-01-15T09:45:43;2.50;99.90
9389;DHT22;4734;52.778;6.798;2024-01-15T09:48:29;2.50;99.90
9389;DHT22;4734;52.778;6.798;2024-01-15T09:51:16;2.60;99.90
9389;DHT22;4734;52.778;6.798;2024-01-15T09:54:02;2.50;99.90
9389;DHT22;4734;52.778;6.798;2024-01-15T09:56:49;2.50;99.90
9389;DHT22;4734;52.778;6.798;2024-01-15T10:03:24;2.50;99.90
9389;DHT22;4734;52.778;6.798;2024-01-15T10:25:48;2.60;99.90
9389;DHT22;4734;52.778;6.798;2024-01-15T10:28:33;2.60;99.90
9389;DHT22;4734;52.778;6.798;2024-01-15T10:31:18;2.70;99.90
9389;DHT22;4734;52.778;6.798;2024-01-15T10:34:12;2.60;99.90
9389;DHT22;4734;52.778;6.798;2024-01-15T10:37:02;2.70;99.90
9389;DHT22;4734;52.778;6.798;2024-01-15T10:39:50;2.70;99.90
9389;DHT22;4734;52.778;6.798;2024-01-15T10:42:40;2.70;99.90
9389;DHT22;4734;52.778;6.798;2024-01-15T10:45:25;2.70;99.90
9389;DHT22;4734;52.778;6.798;2024-01-15T10:48:11;2.70;99.90
9389;DHT22;4734;52.778;6.798;2024-01-15T10:50:57;2.80;99.90
9389;DHT22;4734;52.778;6.798;2024-01-15T10:53:44;2.80;99.90
9389;DHT22;4734;52.778;6.798;2024-01-15T10:56:32;2.80;99.90
9389;DHT22;4734;52.778;6.798;2024-01-15T10:59:21;2.80;99.90
9389;DHT22;4734;52.778;6.798;2024-01-15T11:02:08;2.80;99.90
9389;DHT22;4734;52.778;6.798;2024-01-15T11:04:54;2.90;99.90
9389;DHT22;4734;52.778;6.798;2024-01-15T11:07:40;2.90;99.90
9389;DHT22;4734;52.778;6.798;2024-01-15T11:10:38;2.90;99.90
9389;DHT22;4734;52.778;6.798;2024-01-15T11:13:42;2.90;99.90
9389;DHT22;4734;52.778;6.798;2024-01-15T11:16:54;2.90;99.90
9389;DHT22;4734;52.778;6.798;2024-01-15T11:19:43;3.00;99.90
9389;DHT22;4734;52.778;6.798;2024-01-15T11:22:47;3.00;99.90
9389;DHT22;4734;52.778;6.798;2024-01-15T11:25:35;2.90;99.90
9389;DHT22;4734;52.778;6.798;2024-01-15T11:28:49;3.00;99.90
9389;DHT22;4734;52.778;6.798;2024-01-15T11:31:58;3.00;99.90
9389;DHT22;4734;52.778;6.798;2024-01-15T11:34:55;3.00;99.90
9389;DHT22;4734;52.778;6.798;2024-01-15T11:37:57;3.00;99.90
9389;DHT22;4734;52.778;6.798;2024-01-15T11:40:42;3.00;99.90
9389;DHT22;4734;52.778;6.798;2024-01-15T11:43:31;3.00;99.90
9389;DHT22;4734;52.778;6.798;2024-01-15T11:46:31;3.10;99.90
9389;DHT22;4734;52.778;6.798;2024-01-15T11:49:48;3.10;99.90
9389;DHT22;4734;52.778;6.798;2024-01-15T11:52:39;3.10;99.90
9389;DHT22;4734;52.778;6.798;2024-01-15T11:55:27;3.20;99.90
9389;DHT22;4734;52.778;6.798;2024-01-15T11:58:14;3.20;99.90
9389;DHT22;4734;52.778;6.798;2024-01-15T12:01:00;3.20;99.90
9389;DHT22;4734;52.778;6.798;2024-01-15T12:03:47;3.30;99.90
9389;DHT22;4734;52.778;6.798;2024-01-15T12:06:34;3.30;99.90
9389;DHT22;4734;52.778;6.798;2024-01-15T12:09:20;3.30;99.90
9389;DHT22;4734;52.778;6.798;2024-01-15T12:12:09;3.30;99.90
9389;DHT22;4734;52.778;6.798;2024-01-15T12:14:58;3.40;99.90
9389;DHT22;4734;52.778;6.798;2024-01-15T12:17:45;3.40;99.90
9389;DHT22;4734;52.778;6.798;2024-01-15T12:20:32;3.40;99.90
9389;DHT22;4734;52.778;6.798;2024-01-15T12:23:19;3.50;99.90
9389;DHT22;4734;52.778;6.798;2024-01-15T12:26:05;3.40;99.90
9389;DHT22;4734;52.778;6.798;2024-01-15T12:28:50;3.50;99.90
9389;DHT22;4734;52.778;6.798;2024-01-15T12:31:36;3.40;99.90
9389;DHT22;4734;52.778;6.798;2024-01-15T12:34:22;3.50;99.90
9389;DHT22;4734;52.778;6.798;2024-01-15T12:37:07;3.40;99.90
9389;DHT22;4734;52.778;6.798;2024-01-15T12:39:54;3.40;99.90
9389;DHT22;4734;52.778;6.798;2024-01-15T12:42:40;3.40;99.90
9389;DHT22;4734;52.778;6.798;2024-01-15T12:45:26;3.40;99.90
9389;DHT22;4734;52.778;6.798;2024-01-15T12:48:11;3.40;99.90
9389;DHT22;4734;52.778;6.798;2024-01-15T12:50:57;3.40;99.90
9389;DHT22;4734;52.778;6.798;2024-01-15T12:53:42;3.30;99.90
9389;DHT22;4734;52.778;6.798;2024-01-15T12:56:29;3.30;99.90
9389;DHT22;4734;52.778;6.798;2024-01-15T12:59:15;3.30;99.90
9389;DHT22;4734;52.778;6.798;2024-01-15T13:02:26;3.30;99.90
9389;DHT22;4734;52.778;6.798;2024-01-15T13:07:22;3.30;99.90
9389;DHT22;4734;52.778;6.798;2024-01-15T13:09:56;3.20;99.90
9389;DHT22;4734;52.778;6.798;2024-01-15T13:16:29;3.20;99.90
9389;DHT22;4734;52.778;6.798;2024-01-15T13:19:14;3.20;99.90
9389;DHT22;4734;52.778;6.798;2024-01-15T13:22:00;3.20;99.90
9389;DHT22;4734;52.778;6.798;2024-01-15T13:24:45;3.10;99.90
9389;DHT22;4734;52.778;6.798;2024-01-15T13:27:31;3.20;99.90
9389;DHT22;4734;52.778;6.798;2024-01-15T13:30:18;3.20;99.90
9389;DHT22;4734;52.778;6.798;2024-01-15T13:33:05;3.20;99.90
9389;DHT22;4734;52.778;6.798;2024-01-15T13:35:52;3.20;99.90
9389;DHT22;4734;52.778;6.798;2024-01-15T13:38:37;3.10;99.90
9389;DHT22;4734;52.778;6.798;2024-01-15T13:41:23;3.10;99.90
9389;DHT22;4734;52.778;6.798;2024-01-15T13:44:10;3.10;99.90
9389;DHT22;4734;52.778;6.798;2024-01-15T13:46:56;3.20;99.90
9389;DHT22;4734;52.778;6.798;2024-01-15T13:49:44;3.10;99.90
9389;DHT22;4734;52.778;6.798;2024-01-15T13:52:29;3.10;99.90
9389;DHT22;4734;52.778;6.798;2024-01-15T13:55:14;3.10;99.90
9389;DHT22;4734;52.778;6.798;2024-01-15T13:58:00;3.10;99.90
9389;DHT22;4734;52.778;6.798;2024-01-15T14:00:48;3.10;99.90
9389;DHT22;4734;52.778;6.798;2024-01-15T14:03:33;3.10;99.90
9389;DHT22;4734;52.778;6.798;2024-01-15T14:06:20;3.10;99.90
9389;DHT22;4734;52.778;6.798;2024-01-15T14:09:06;3.10;99.90
9389;DHT22;4734;52.778;6.798;2024-01-15T14:11:53;3.10;99.90
9389;DHT22;4734;52.778;6.798;2024-01-15T14:14:39;3.10;99.90
9389;DHT22;4734;52.778;6.798;2024-01-15T14:17:25;3.10;99.90
9389;DHT22;4734;52.778;6.798;2024-01-15T14:20:10;3.10;99.90
9389;DHT22;4734;52.778;6.798;2024-01-15T14:22:58;3.10;99.90
9389;DHT22;4734;52.778;6.798;2024-01-15T14:25:43;3.10;99.90
9389;DHT22;4734;52.778;6.798;2024-01-15T14:28:29;3.20;99.90
9389;DHT22;4734;52.778;6.798;2024-01-15T14:31:14;3.20;99.90
9389;DHT22;4734;52.778;6.798;2024-01-15T14:34:00;3.20;99.90
9389;DHT22;4734;52.778;6.798;2024-01-15T14:36:47;3.20;99.90
9389;DHT22;4734;52.778;6.798;2024-01-15T14:39:34;3.30;99.90
9389;DHT22;4734;52.778;6.798;2024-01-15T14:42:20;3.30;99.90
9389;DHT22;4734;52.778;6.798;2024-01-15T14:45:06;3.20;99.90
9389;DHT22;4734;52.778;6.798;2024-01-15T14:47:56;3.30;99.90
9389;DHT22;4734;52.778;6.798;2024-01-15T14:50:42;3.30;99.90
9389;DHT22;4734;52.778;6.798;2024-01-15T14:53:27;3.30;99.90
9389;DHT22;4734;52.778;6.798;2024-01-15T14:56:14;3.30;99.90
9389;DHT22;4734;52.778;6.798;2024-01-15T14:59:00;3.30;99.90
9389;DHT22;4734;52.778;6.798;2024-01-15T15:01:46;3.30;99.90
9389;DHT22;4734;52.778;6.798;2024-01-15T15:04:31;3.30;99.90
9389;DHT22;4734;52.778;6.798;2024-01-15T15:07:17;3.30;99.90
9389;DHT22;4734;52.778;6.798;2024-01-15T15:10:02;3.30;99.90
9389;DHT22;4734;52.778;6.798;2024-01-15T15:12:50;3.30;99.90
9389;DHT22;4734;52.778;6.798;2024-01-15T15:15:35;3.30;99.90
9389;DHT22;4734;52.778;6.798;2024-01-15T15:18:21;3.30;99.90
9389;DHT22;4734;52.778;6.798;2024-01-15T15:21:14;3.30;99.90
9389;DHT22;4734;52.778;6.798;2024-01-15T15:24:05;3.30;99.90
9389;DHT22;4734;52.778;6.798;2024-01-15T15:26:50;3.30;99.90
9389;DHT22;4734;52.778;6.798;2024-01-15T15:29:37;3.30;99.90
9389;DHT22;4734;52.778;6.798;2024-01-15T15:32:22;3.30;99.90
9389;DHT22;4734;52.778;6.798;2024-01-15T15:35:08;3.30;99.90
9389;DHT22;4734;52.778;6.798;2024-01-15T15:37:54;3.30;99.90
9389;DHT22;4734;52.778;6.798;2024-01-15T15:40:40;3.30;99.90
9389;DHT22;4734;52.778;6.798;2024-01-15T15:43:25;3.30;99.90
9389;DHT22;4734;52.778;6.798;2024-01-15T15:46:12;3.30;99.90
9389;DHT22;4734;52.778;6.798;2024-01-15T15:48:58;3.30;99.90
9389;DHT22;4734;52.778;6.798;2024-01-15T15:51:43;3.20;99.90
9389;DHT22;4734;52.778;6.798;2024-01-15T15:54:29;3.30;99.90
9389;DHT22;4734;52.778;6.798;2024-01-15T15:57:14;3.30;99.90
9389;DHT22;4734;52.778;6.798;2024-01-15T16:00:00;3.20;99.90
9389;DHT22;4734;52.778;6.798;2024-01-15T16:02:47;3.20;99.90
9389;DHT22;4734;52.778;6.798;2024-01-15T16:05:33;3.20;99.90
9389;DHT22;4734;52.778;6.798;2024-01-15T16:08:18;3.20;99.90
9389;DHT22;4734;52.778;6.798;2024-01-15T16:11:04;3.20;99.90
9389;DHT22;4734;52.778;6.798;2024-01-15T16:13:49;3.20;99.90
9389;DHT22;4734;52.778;6.798;2024-01-15T16:16:35;3.20;99.90
9389;DHT22;4734;52.778;6.798;2024-01-15T16:19:22;3.10;99.90
9389;DHT22;4734;52.778;6.798;2024-01-15T16:22:07;3.10;99.90
9389;DHT22;4734;52.778;6.798;2024-01-15T16:24:55;3.10;99.90
9389;DHT22;4734;52.778;6.798;2024-01-15T16:27:40;3.10;99.90
9389;DHT22;4734;52.778;6.798;2024-01-15T16:30:26;3.10;99.90
9389;DHT22;4734;52.778;6.798;2024-01-15T16:33:12;3.10;99.90
9389;DHT22;4734;52.778;6.798;2024-01-15T16:35:59;3.10;99.90
9389;DHT22;4734;52.778;6.798;2024-01-15T16:38:44;3.10;99.90
9389;DHT22;4734;52.778;6.798;2024-01-15T16:41:30;3.10;99.90
9389;DHT22;4734;52.778;6.798;2024-01-15T16:44:15;3.00;99.90
9389;DHT22;4734;52.778;6.798;2024-01-15T16:47:02;3.00;99.90
9389;DHT22;4734;52.778;6.798;2024-01-15T16:49:47;3.00;99.90
9389;DHT22;4734;52.778;6.798;2024-01-15T16:52:34;3.00;99.90
9389;DHT22;4734;52.778;6.798;2024-01-15T16:55:20;3.00;99.90
9389;DHT22;4734;52.778;6.798;2024-01-15T16:58:05;3.00;99.90
9389;DHT22;4734;52.778;6.798;2024-01-15T17:00:51;3.00;99.90
9389;DHT22;4734;52.778;6.798;2024-01-15T17:03:37;3.00;99.90
9389;DHT22;4734;52.778;6.798;2024-01-15T17:06:22;3.00;99.90
9389;DHT22;4734;52.778;6.798;2024-01-15T17:09:09;3.00;99.90
9389;DHT22;4734;52.778;6.798;2024-01-15T17:11:54;3.00;99.90
9389;DHT22;4734;52.778;6.798;2024-01-15T17:14:40;2.90;99.90
9389;DHT22;4734;52.778;6.798;2024-01-15T17:17:25;2.90;99.90
9389;DHT22;4734;52.778;6.798;2024-01-15T17:20:12;2.90;99.90
9389;DHT22;4734;52.778;6.798;2024-01-15T17:22:57;2.90;99.90
9389;DHT22;4734;52.778;6.798;2024-01-15T17:25:44;2.90;99.90
9389;DHT22;4734;52.778;6.798;2024-01-15T17:28:29;2.90;99.90
9389;DHT22;4734;52.778;6.798;2024-01-15T17:31:15;2.90;99.90
9389;DHT22;4734;52.778;6.798;2024-01-15T17:34:01;2.90;99.90
9389;DHT22;4734;52.778;6.798;2024-01-15T17:36:46;2.90;99.90
9389;DHT22;4734;52.778;6.798;2024-01-15T17:39:32;2.90;99.90
9389;DHT22;4734;52.778;6.798;2024-01-15T17:42:19;2.90;99.90
9389;DHT22;4734;52.778;6.798;2024-01-15T17:45:05;2.90;99.90
9389;DHT22;4734;52.778;6.798;2024-01-15T17:47:50;2.80;99.90
9389;DHT22;4734;52.778;6.798;2024-01-15T17:50:36;2.90;99.90
9389;DHT22;4734;52.778;6.798;2024-01-15T17:53:22;2.80;99.90
9389;DHT22;4734;52.778;6.798;2024-01-15T17:56:07;2.80;99.90
9389;DHT22;4734;52.778;6.798;2024-01-15T17:58:54;2.80;99.90
9389;DHT22;4734;52.778;6.798;2024-01-15T18:01:40;2.80;99.90
9389;DHT22;4734;52.778;6.798;2024-01-15T18:04:27;2.80;99.90
9389;DHT22;4734;52.778;6.798;2024-01-15T18:07:13;2.80;99.90
9389;DHT22;4734;52.778;6.798;2024-01-15T18:09:58;2.80;99.90
9389;DHT22;4734;52.778;6.798;2024-01-15T18:12:44;2.80;99.90
9389;DHT22;4734;52.778;6.798;2024-01-15T18:15:31;2.70;99.90
9389;DHT22;4734;52.778;6.798;2024-01-15T18:18:17;2.70;99.90
9389;DHT22;4734;52.778;6.798;2024-01-15T18:21:03;2.70;99.90
9389;DHT22;4734;52.778;6.798;2024-01-15T18:23:49;2.70;99.90
9389;DHT22;4734;52.778;6.798;2024-01-15T18:26:34;2.60;99.90
9389;DHT22;4734;52.778;6.798;2024-01-15T18:29:20;2.60;99.90
9389;DHT22;4734;52.778;6.798;2024-01-15T18:32:07;2.60;99.90
9389;DHT22;4734;52.778;6.798;2024-01-15T18:34:52;2.60;99.90
9389;DHT22;4734;52.778;6.798;2024-01-15T18:37:38;2.60;99.90
9389;DHT22;4734;52.778;6.798;2024-01-15T18:40:24;2.60;99.90
9389;DHT22;4734;52.778;6.798;2024-01-15T18:43:09;2.60;99.90
9389;DHT22;4734;52.778;6.798;2024-01-15T18:45:55;2.60;99.90
9389;DHT22;4734;52.778;6.798;2024-01-15T18:48:43;2.60;99.90
9389;DHT22;4734;52.778;6.798;2024-01-15T18:51:28;2.60;99.90
9389;DHT22;4734;52.778;6.798;2024-01-15T18:54:14;2.60;99.90